Historyczne dane pomiarowe

Dodano dane terminowe – wersja testowa.

Dane z okresu 1951-2019

Wersja bazy: 1.34 [2019-03-16, lista zmian], aktualizacja planowana na 2019-04-15

Dane meteo z obszaru Polski uzyskane na podstawie danych udostępnionych przez Instytut Meteorologii i Gospodarki Wodnej – Państwowy Instytut Badawczy.

 

Wybierz Datę:    

       

TemperaturaWilgotnośćWiatrCiśnienieOpadyŚniegCzas trwania zjawisk
 Stacja t tx tn tng RH VA  wxwx mslp ppp RRR   cm mm wxwxwxwxwxwxwx
1983-08-14 14.7 20.0 9.5 7.8 69.5- 4.3 1.0---- 0.0------------
1983-08-13 14.1 21.4 12.6 9.8 91.5- 7.7 1.7---- 10.6------------
1983-08-12 21.1 28.6 13.4 10.9 67.3- 0.0 1.7---- 5.4------------
1983-08-11 20.4 28.1 12.4 9.9 72.5- 4.3 1.0---- 0.0------------
1983-08-10 20.3 27.1 10.9 8.4 72.3- 0.7 1.0---- 0.0------------
1983-08-09 20.7 28.9 14.4 12.4 74.5- 0.7 1.7---- 0.0------------
1983-08-08 19.8 27.8 12.6 10.4 81.0- 5.0 2.0---- 0.2------------
1983-08-07 17.8 25.1 15.3 13.3 90.3- 4.7 1.3---- 8.1------------
1983-08-06 16.3 23.0 8.8 5.9 76.0- 4.3 1.3---- 0.6------------
1983-08-05 14.9 19.0 10.9 9.9 81.8- 6.7 1.7---- 0.0------------
1983-08-04 14.8 22.0 13.1 12.4 87.5- 8.0 1.3---- 6.3------------
1983-08-03 21.8 28.8 16.8 15.9 77.3- 7.3 1.3---- 0.6------------
1983-08-02 22.6 29.6 15.3 9.9 60.0- 4.7 2.3---- 1.1------------
1983-08-01 20.3 28.6 10.6 7.4 61.3- 0.0 2.7---- 0.0------------
1983-07-31 18.0 25.6 10.5 7.4 69.3- 1.7 1.0---- 0.0------------
1983-07-30 18.0 21.4 15.8 12.4 76.8- 7.7 3.0---- 0.7------------
1983-07-29 19.5 25.7 13.9 10.4 68.8- 5.0 2.7---- 0.7------------
1983-07-28 22.5 26.5 17.5 16.9 71.8- 3.7 2.7---- 0.0------------
1983-07-27 23.1 31.6 13.9 11.2 65.5- 1.7 1.0---- 4.4------------
1983-07-26 21.2 29.6 13.5 10.9 70.8- 5.7 1.7---- 0.0------------
1983-07-25 14.6 18.7 7.5 5.4 86.0- 7.0 2.0---- 0.9------------
1983-07-24 15.1 19.5 10.9 8.3 88.8- 7.3 1.0---- 0.0------------
1983-07-23 14.5 19.2 10.5 8.5 87.3- 7.0 1.3---- 5.6------------
1983-07-22 15.0 20.0 9.8 7.4 68.0- 7.3 2.7---- 2.7------------
1983-07-21 13.6 19.0 9.9 6.3 71.5- 5.0 3.0---- 0.8------------
1983-07-20 15.3 24.3 10.9 10.9 78.0- 7.3 2.0---- 10.0------------
1983-07-19 23.0 27.8 17.6 15.4 67.8- 4.7 2.0---- 0.0------------
1983-07-18 20.9 29.3 8.5 6.3 62.3- 1.3 1.3---- 1.1------------
1983-07-17 19.6 25.1 14.3 12.4 69.3- 2.0 1.7---- 0.0------------
1983-07-16 20.8 30.1 11.2 8.8 71.0- 2.0 1.7---- 0.7------------
1983-07-15 19.9 26.0 11.0 8.4 64.3- 1.3 2.0---- 0.0------------
1983-07-14 20.4 25.8 15.9 13.9 78.3- 5.3 2.3---- 4.5------------
1983-07-13 21.9 27.6 15.8 13.5 71.3- 2.7 1.7---- 0.0------------
1983-07-12 20.6 25.1 16.3 15.9 78.3- 6.0 1.7---- 0.0------------
1983-07-11 21.9 27.6 16.6 14.3 74.5- 6.7 1.7---- 14.6------------
1983-07-10 22.9 30.1 13.0 9.8 59.0- 2.3 2.0---- 0.0------------
1983-07-09 21.9 29.3 11.9 8.7 62.5- 1.7 2.0---- 0.0------------
1983-07-08 19.7 27.6 8.6 5.4 62.0- 0.3 1.3---- 0.0------------
1983-07-07 20.4 27.3 10.5 7.3 59.3- 0.0 1.3---- 0.0------------
1983-07-06 20.6 27.6 9.9 6.9 62.8- 0.7 1.3---- 0.0------------
1983-07-05 19.6 25.1 12.8 9.9 63.8- 1.7 2.3---- 0.0------------
1983-07-04 21.0 27.8 12.5 9.4 61.5- 1.0 1.3---- 0.0------------
1983-07-03 18.1 25.3 8.0 5.3 67.0- 1.0 1.0---- 0.0------------
1983-07-02 18.2 23.0 13.4 10.5 79.3- 3.7 3.0---- 0.0------------
1983-07-01 20.5 28.1 10.1 7.5 68.8- 0.7 1.0---- 0.0------------
1983-06-30 17.3 24.8 7.0 4.3 64.8- 0.3 2.0---- 0.0------------
1983-06-29 14.5 20.5 5.5 3.1 69.8- 0.7 1.3---- 0.0------------
1983-06-28 17.1 19.8 14.6 12.9 86.8- 7.0 1.7---- 6.9------------
1983-06-27 18.6 27.2 10.9 7.8 81.0- 5.0 1.3---- 2.1------------
1983-06-26 20.2 25.7 14.4 12.1 64.0- 0.0 1.3---- 0.2------------
1983-06-25 20.9 30.5 9.4 5.9 61.0- 3.0 1.7---- 1.2------------
1983-06-24 17.7 26.7 6.0 2.4 61.5- 0.0 1.0---- 0.0------------
1983-06-23 14.8 22.3 3.0 0.9 58.5- 0.0 1.7---- 0.0------------
1983-06-22 13.1 19.0 5.0 2.1 59.8- 0.0 1.7---- 0.0------------
1983-06-21 18.1 25.1 10.5 7.4 67.0- 1.0 2.0---- 0.0------------
1983-06-20 19.5 25.6 13.6 11.3 72.8- 3.3 2.3---- 0.0------------
1983-06-19 17.2 21.0 14.4 13.1 87.0- 7.3 2.3---- 3.4------------
1983-06-18 14.3 17.5 11.4 10.9 84.3- 8.0 2.3---- 0.0------------
1983-06-17 13.8 19.0 6.5 3.8 79.3- 5.3 1.7---- 0.0------------
1983-06-16 13.6 16.8 10.4 9.5 79.5- 7.3 2.3---- 0.1------------
341.5 ms

 

Źródłem pochodzenia danych jest Instytut Meteorologii i Gospodarki Wodnej – Państwowy Instytut Badawczy. Dane Instytutu Meteorologii i Gospodarki Wodnej – Państwowego Instytutu Badawczego zostały przetworzone.

Dane źródłowe można odnaleźć na stronie https://dane.imgw.pl